createdAt,value
2019-03-12T00:00:17.337Z,59.27
2019-03-12T00:01:20.990Z,59.20
2019-03-12T00:02:24.584Z,58.95
2019-03-12T00:03:28.242Z,59.14
2019-03-12T00:04:31.924Z,58.81
2019-03-12T00:05:35.468Z,58.96
2019-03-12T00:06:39.469Z,59.00
2019-03-12T00:07:43.112Z,59.18
2019-03-12T00:08:46.771Z,59.41
2019-03-12T00:09:53.631Z,59.44
2019-03-12T00:10:55.848Z,59.40
2019-03-12T00:11:59.466Z,59.32
2019-03-12T00:13:03.141Z,59.11
2019-03-12T00:14:06.795Z,59.28
2019-03-12T00:15:10.347Z,59.63
2019-03-12T00:16:14.346Z,59.81
2019-03-12T00:17:18.026Z,59.89
2019-03-12T00:18:21.571Z,60.05
2019-03-12T00:19:25.228Z,60.13
2019-03-12T00:20:28.850Z,60.09
2019-03-12T00:21:32.814Z,60.05
2019-03-12T00:22:36.435Z,59.96
2019-03-12T00:23:40.177Z,59.76
2019-03-12T00:24:44.134Z,59.45
2019-03-12T00:25:47.866Z,59.74
2019-03-12T00:26:51.493Z,59.77
2019-03-12T00:27:55.223Z,60.08
2019-03-12T00:28:58.853Z,60.41
2019-03-12T00:30:02.510Z,60.88
2019-03-12T00:31:06.141Z,60.58
2019-03-12T00:32:09.769Z,60.55
2019-03-12T00:33:13.416Z,60.08
2019-03-12T00:34:17.036Z,60.11
2019-03-12T00:35:20.798Z,60.07
2019-03-12T00:36:24.492Z,60.08
2019-03-12T00:37:28.119Z,59.91
2019-03-12T00:38:31.681Z,60.19
2019-03-12T00:39:35.313Z,60.45
2019-03-12T00:40:39.064Z,60.30
2019-03-12T00:41:42.688Z,60.04
2019-03-12T00:42:46.240Z,60.00
2019-03-12T00:43:49.878Z,60.26
2019-03-12T00:44:53.506Z,60.13
2019-03-12T00:45:57.093Z,60.09
2019-03-12T00:47:00.723Z,60.13
2019-03-12T00:48:04.348Z,60.28
2019-03-12T00:49:07.969Z,60.40
2019-03-12T00:50:12.398Z,60.76
2019-03-12T00:51:16.057Z,60.98
2019-03-12T00:52:19.678Z,60.96
2019-03-12T00:53:23.380Z,60.93
2019-03-12T00:54:27.014Z,60.77
2019-03-12T00:55:30.633Z,60.66
2019-03-12T00:56:34.303Z,60.19
2019-03-12T00:57:38.126Z,60.11
2019-03-12T00:58:41.808Z,60.07
2019-03-12T00:59:45.808Z,60.28
2019-03-12T01:00:49.494Z,60.35
2019-03-12T01:01:53.160Z,60.08
2019-03-12T01:02:57.151Z,59.86
2019-03-12T01:04:00.897Z,60.12
2019-03-12T01:05:05.519Z,60.20
2019-03-12T01:06:09.130Z,60.41
2019-03-12T01:07:12.787Z,60.07
2019-03-12T01:08:16.414Z,60.22
2019-03-12T01:09:20.040Z,60.40
2019-03-12T01:10:26.578Z,60.20
2019-03-12T01:11:30.275Z,59.94
2019-03-12T01:12:33.959Z,60.22
2019-03-12T01:13:37.658Z,60.09
2019-03-12T01:14:41.450Z,60.17
2019-03-12T01:15:45.351Z,60.33
2019-03-12T01:16:49.043Z,60.75
2019-03-12T01:17:52.693Z,60.75
2019-03-12T01:18:56.332Z,60.75
2019-03-12T01:20:00.023Z,61.05
2019-03-12T01:21:03.729Z,60.87
2019-03-12T01:22:07.398Z,60.70
2019-03-12T01:23:11.140Z,60.52
2019-03-12T01:24:14.881Z,60.64
2019-03-12T01:25:18.505Z,60.62
2019-03-12T01:26:22.154Z,60.71
2019-03-12T01:27:25.785Z,60.75
2019-03-12T01:28:29.478Z,60.87
2019-03-12T01:29:33.174Z,60.74
2019-03-12T01:30:36.795Z,60.56
2019-03-12T01:31:40.430Z,60.63
2019-03-12T01:32:44.161Z,61.25
2019-03-12T01:33:47.865Z,60.94
2019-03-12T01:34:51.566Z,60.60
2019-03-12T01:35:55.190Z,60.62
2019-03-12T01:36:59.233Z,60.41
2019-03-12T01:38:02.852Z,60.59
2019-03-12T01:39:07.649Z,60.85
2019-03-12T01:40:13.284Z,61.01
2019-03-12T01:41:16.946Z,60.91
2019-03-12T01:42:20.598Z,61.10
2019-03-12T01:43:24.595Z,61.17
2019-03-12T01:44:28.295Z,61.17
2019-03-12T01:45:31.927Z,60.99
2019-03-12T01:46:35.560Z,61.00
2019-03-12T01:47:39.298Z,61.30
2019-03-12T01:48:43.328Z,61.21
2019-03-12T01:49:46.964Z,60.99
2019-03-12T01:50:50.592Z,60.89
2019-03-12T01:51:54.215Z,60.81
2019-03-12T01:52:57.948Z,60.53
2019-03-12T01:54:01.648Z,60.28
2019-03-12T01:55:08.419Z,60.51
2019-03-12T01:56:12.039Z,60.48
2019-03-12T01:57:15.663Z,60.45
2019-03-12T01:58:19.316Z,60.49
2019-03-12T01:59:22.948Z,60.65
2019-03-12T02:00:26.569Z,60.53
2019-03-12T02:01:30.278Z,60.58
2019-03-12T02:02:33.973Z,60.55
2019-03-12T02:03:37.637Z,60.82
2019-03-12T02:04:41.263Z,60.61
2019-03-12T02:05:44.958Z,60.93
2019-03-12T02:06:48.657Z,61.07
2019-03-12T02:07:52.573Z,60.73
2019-03-12T02:08:56.246Z,60.40
2019-03-12T02:09:59.943Z,60.54
2019-03-12T02:11:03.959Z,60.48
2019-03-12T02:12:07.592Z,60.54
2019-03-12T02:13:11.296Z,60.59
2019-03-12T02:14:26.191Z,60.69
2019-03-12T02:15:30.253Z,60.54
2019-03-12T02:16:35.069Z,60.40
2019-03-12T02:17:38.839Z,60.30
2019-03-12T02:18:42.467Z,60.46
2019-03-12T02:19:46.195Z,60.80
2019-03-12T02:20:49.892Z,60.96
2019-03-12T02:21:53.530Z,60.67
2019-03-12T02:22:57.138Z,61.05
2019-03-12T02:24:00.856Z,60.45
2019-03-12T02:25:06.591Z,60.50
2019-03-12T02:26:10.228Z,60.68
2019-03-12T02:27:13.846Z,60.66
2019-03-12T02:28:17.469Z,60.36
2019-03-12T02:29:21.094Z,60.56
2019-03-12T02:30:24.756Z,60.27
2019-03-12T02:31:28.848Z,60.31
2019-03-12T02:32:32.508Z,60.24
2019-03-12T02:33:36.128Z,60.59
2019-03-12T02:34:39.760Z,60.84
2019-03-12T02:35:43.756Z,60.93
2019-03-12T02:36:47.452Z,61.04
2019-03-12T02:37:51.075Z,61.19
2019-03-12T02:38:54.768Z,61.33
2019-03-12T02:39:58.423Z,61.54
2019-03-12T02:41:02.065Z,61.65
2019-03-12T02:42:05.894Z,61.70
2019-03-12T02:43:10.388Z,61.73
2019-03-12T02:44:14.017Z,61.71
2019-03-12T02:45:17.746Z,61.38
2019-03-12T02:46:21.412Z,61.11
2019-03-12T02:47:25.037Z,60.85
2019-03-12T02:48:28.657Z,60.87
2019-03-12T02:49:32.296Z,61.05
2019-03-12T02:50:35.927Z,61.29
2019-03-12T02:51:39.513Z,61.21
2019-03-12T02:52:43.655Z,61.45
2019-03-12T02:53:47.337Z,61.46
2019-03-12T02:54:50.956Z,61.24
2019-03-12T02:55:55.135Z,61.47
2019-03-12T02:56:59.152Z,61.87
2019-03-12T02:58:02.891Z,61.90
2019-03-12T02:59:06.525Z,61.79
2019-03-12T03:00:22.132Z,62.07
2019-03-12T03:01:25.760Z,62.18
2019-03-12T03:02:29.420Z,62.03
2019-03-12T03:03:33.166Z,61.83
2019-03-12T03:04:36.859Z,61.75
2019-03-12T03:05:48.385Z,61.72
2019-03-12T03:06:53.593Z,61.82
2019-03-12T03:08:04.774Z,62.16
2019-03-12T03:09:08.574Z,61.84
2019-03-12T03:10:13.562Z,61.75
2019-03-12T03:11:17.189Z,61.75
2019-03-12T03:12:20.817Z,61.89
2019-03-12T03:13:24.475Z,61.70
2019-03-12T03:14:30.779Z,61.59
2019-03-12T03:15:47.711Z,61.17
2019-03-12T03:16:51.748Z,61.62
2019-03-12T03:17:55.557Z,61.40
2019-03-12T03:18:59.200Z,61.42
2019-03-12T03:20:02.822Z,61.35
2019-03-12T03:21:06.467Z,61.17
2019-03-12T03:22:10.114Z,61.24
2019-03-12T03:23:13.818Z,61.08
2019-03-12T03:24:17.537Z,60.88
2019-03-12T03:25:21.464Z,60.68
2019-03-12T03:26:25.164Z,61.03
2019-03-12T03:27:29.535Z,61.21
2019-03-12T03:28:33.386Z,61.12
2019-03-12T03:29:37.063Z,60.87
2019-03-12T03:30:40.685Z,60.58
2019-03-12T03:31:44.646Z,61.05
2019-03-12T03:32:48.277Z,61.20
2019-03-12T03:33:52.085Z,61.05
2019-03-12T03:34:55.672Z,61.25
2019-03-12T03:35:59.614Z,61.07
2019-03-12T03:37:03.249Z,61.49
2019-03-12T03:38:06.868Z,61.39
2019-03-12T03:39:11.000Z,61.46
2019-03-12T03:40:17.107Z,61.86
2019-03-12T03:41:20.671Z,61.63
2019-03-12T03:42:24.377Z,61.35
2019-03-12T03:43:28.027Z,61.09
2019-03-12T03:44:31.583Z,60.92
2019-03-12T03:45:35.257Z,60.93
2019-03-12T03:46:38.873Z,61.02
2019-03-12T03:47:42.506Z,61.29
2019-03-12T03:48:46.135Z,61.25
2019-03-12T03:49:49.759Z,61.09
2019-03-12T03:50:53.416Z,61.07
2019-03-12T03:51:57.137Z,61.19
2019-03-12T03:53:00.738Z,61.65
2019-03-12T03:54:04.380Z,61.71
2019-03-12T03:55:16.911Z,62.14
2019-03-12T03:56:20.736Z,62.40
2019-03-12T03:57:24.472Z,62.48
2019-03-12T03:58:28.085Z,62.37
2019-03-12T03:59:31.713Z,62.53
2019-03-12T04:00:35.345Z,62.74
2019-03-12T04:01:38.963Z,62.65
2019-03-12T04:02:42.677Z,62.92
2019-03-12T04:03:46.317Z,63.26
2019-03-12T04:04:49.935Z,62.64
2019-03-12T04:05:53.567Z,63.03
2019-03-12T04:06:57.405Z,62.72
2019-03-12T04:08:01.041Z,63.31
2019-03-12T04:09:05.769Z,63.03
2019-03-12T04:10:11.295Z,63.19
2019-03-12T04:11:14.923Z,63.18
2019-03-12T04:12:18.693Z,63.28
2019-03-12T04:13:22.318Z,63.70
2019-03-12T04:14:25.942Z,63.93
2019-03-12T04:15:29.577Z,64.16
2019-03-12T04:16:33.201Z,64.31
2019-03-12T04:17:36.860Z,64.74
2019-03-12T04:18:40.533Z,65.16
2019-03-12T04:19:44.226Z,65.76
2019-03-12T04:20:47.925Z,65.75
2019-03-12T04:21:51.554Z,65.78
2019-03-12T04:22:55.219Z,66.06
2019-03-12T04:23:58.945Z,66.02
2019-03-12T04:25:02.565Z,66.57
2019-03-12T04:26:06.258Z,67.26
2019-03-12T04:27:09.957Z,67.20
2019-03-12T04:28:13.609Z,67.66
2019-03-12T04:29:17.236Z,67.64
2019-03-12T04:30:21.088Z,68.22
2019-03-12T04:31:24.769Z,68.89
2019-03-12T04:32:28.466Z,69.36
2019-03-12T04:34:00.560Z,69.69
2019-03-12T04:35:04.986Z,70.50
2019-03-12T04:36:08.607Z,70.88
2019-03-12T04:37:12.302Z,71.03
2019-03-12T04:38:16.000Z,70.63
2019-03-12T04:39:19.680Z,71.09
2019-03-12T04:40:23.312Z,71.44
2019-03-12T04:41:26.939Z,71.53
2019-03-12T04:42:30.641Z,71.65
2019-03-12T04:43:34.329Z,71.48
2019-03-12T04:44:37.988Z,72.01
2019-03-12T04:45:41.623Z,71.92
2019-03-12T04:46:45.250Z,72.99
2019-03-12T04:47:48.808Z,74.46
2019-03-12T04:48:52.428Z,75.96
2019-03-12T04:49:56.084Z,75.41
2019-03-12T04:50:59.817Z,74.22
2019-03-12T04:52:03.533Z,74.89
2019-03-12T04:53:07.163Z,74.08
2019-03-12T04:54:11.697Z,73.11
2019-03-12T04:55:18.427Z,73.03
2019-03-12T04:56:22.046Z,72.78
2019-03-12T04:57:25.686Z,74.77
2019-03-12T04:58:29.393Z,74.11
2019-03-12T04:59:33.015Z,73.19
2019-03-12T05:00:36.615Z,73.54
2019-03-12T05:01:40.235Z,73.95
2019-03-12T05:02:43.865Z,74.29
2019-03-12T05:03:47.499Z,73.43
2019-03-12T05:04:51.520Z,73.25
2019-03-12T05:05:55.180Z,73.90
2019-03-12T05:06:58.810Z,73.70
2019-03-12T05:08:02.467Z,73.96
2019-03-12T05:09:08.466Z,73.17
2019-03-12T05:10:15.346Z,73.33
2019-03-12T05:11:19.001Z,73.02
2019-03-12T05:12:22.630Z,72.69
2019-03-12T05:13:26.200Z,72.94
2019-03-12T05:14:30.800Z,72.89
2019-03-12T05:15:34.444Z,73.31
2019-03-12T05:16:38.034Z,73.76
2019-03-12T05:17:41.673Z,73.88
2019-03-12T05:18:45.375Z,74.62
2019-03-12T05:19:48.997Z,74.83
2019-03-12T05:20:52.623Z,74.66
2019-03-12T05:21:56.341Z,74.80
2019-03-12T05:22:59.986Z,74.84
2019-03-12T05:24:03.749Z,75.48
2019-03-12T05:25:12.471Z,75.38
2019-03-12T05:26:16.748Z,74.91
2019-03-12T05:27:20.483Z,75.88
2019-03-12T05:28:24.174Z,76.02
2019-03-12T05:29:28.132Z,76.42
2019-03-12T05:30:31.902Z,75.41
2019-03-12T05:31:35.781Z,75.54
2019-03-12T05:32:39.421Z,75.63
2019-03-12T05:33:43.158Z,74.35
2019-03-12T05:34:46.859Z,75.01
2019-03-12T05:35:50.805Z,75.23
2019-03-12T05:36:54.372Z,75.09
2019-03-12T05:37:58.094Z,74.35
2019-03-12T05:39:01.735Z,74.36
2019-03-12T05:40:08.375Z,73.93
2019-03-12T05:41:12.479Z,74.00
2019-03-12T05:42:16.179Z,74.65
2019-03-12T05:43:19.856Z,74.55
2019-03-12T05:44:23.510Z,74.62
2019-03-12T05:45:27.132Z,73.88
2019-03-12T05:46:30.765Z,73.55
2019-03-12T05:47:34.523Z,73.89
2019-03-12T05:48:38.150Z,72.16
2019-03-12T05:49:41.877Z,72.10
2019-03-12T05:50:45.578Z,71.69
2019-03-12T05:51:51.337Z,71.94
2019-03-12T05:53:00.464Z,72.42
2019-03-12T05:54:04.164Z,72.55
2019-03-12T05:55:09.535Z,72.00
2019-03-12T05:56:13.157Z,72.26
2019-03-12T05:57:16.855Z,71.65
2019-03-12T05:58:20.480Z,71.53
2019-03-12T05:59:24.203Z,70.72
2019-03-12T06:00:28.272Z,70.79
2019-03-12T06:01:31.939Z,69.88
2019-03-12T06:02:35.581Z,70.42
2019-03-12T06:03:39.271Z,70.95
2019-03-12T06:04:42.890Z,71.03
2019-03-12T06:05:46.545Z,70.52
2019-03-12T06:06:50.179Z,70.42
2019-03-12T06:07:55.523Z,70.09
2019-03-12T06:08:59.381Z,69.59
2019-03-12T06:10:03.205Z,69.51
2019-03-12T06:11:09.127Z,69.34
2019-03-12T06:12:12.753Z,68.88
2019-03-12T06:13:16.443Z,69.69
2019-03-12T06:14:20.083Z,68.52
2019-03-12T06:15:23.773Z,68.50
2019-03-12T06:16:27.432Z,67.78
2019-03-12T06:17:31.055Z,67.98
2019-03-12T06:18:34.753Z,68.71
2019-03-12T06:19:38.497Z,68.78
2019-03-12T06:20:42.109Z,68.44
2019-03-12T06:21:46.130Z,69.09
2019-03-12T06:22:49.820Z,68.71
2019-03-12T06:23:53.662Z,68.88
2019-03-12T06:24:57.336Z,68.79
2019-03-12T06:26:00.977Z,68.48
2019-03-12T06:27:04.652Z,68.63
2019-03-12T06:28:08.283Z,68.00
2019-03-12T06:29:11.911Z,68.11
2019-03-12T06:30:20.326Z,67.89
2019-03-12T06:31:28.584Z,68.16
2019-03-12T06:32:39.496Z,68.33
2019-03-12T06:33:54.095Z,68.26
2019-03-12T06:34:59.286Z,68.73
2019-03-12T06:36:04.546Z,68.83
2019-03-12T06:37:22.141Z,68.40
2019-03-12T06:38:33.468Z,68.96
2019-03-12T06:39:44.864Z,68.83
2019-03-12T06:41:06.772Z,69.92
2019-03-12T06:42:12.035Z,69.78
2019-03-12T06:43:23.031Z,69.93
2019-03-12T06:44:28.322Z,70.33
2019-03-12T06:45:51.946Z,70.23
2019-03-12T06:46:57.218Z,69.09
2019-03-12T06:48:14.474Z,69.28
2019-03-12T06:49:19.601Z,69.31
2019-03-12T06:50:24.838Z,68.86
2019-03-12T06:51:33.089Z,68.75
2019-03-12T06:52:54.606Z,68.98
2019-03-12T06:54:18.194Z,68.93
2019-03-12T06:55:29.302Z,69.54
2019-03-12T06:56:34.635Z,68.88
2019-03-12T06:57:42.819Z,69.09
2019-03-12T06:58:48.092Z,69.22
2019-03-12T06:59:53.359Z,68.47
2019-03-12T07:01:04.460Z,68.80
2019-03-12T07:02:26.262Z,68.39
2019-03-12T07:03:49.362Z,68.58
2019-03-12T07:05:00.667Z,68.42
2019-03-12T07:06:06.051Z,68.71
2019-03-12T07:07:27.807Z,68.55
2019-03-12T07:08:49.547Z,68.84
2019-03-12T07:10:00.530Z,69.08
2019-03-12T07:11:05.795Z,68.80
2019-03-12T07:12:29.151Z,68.78
2019-03-12T07:13:34.428Z,68.59
2019-03-12T07:14:39.718Z,68.85
2019-03-12T07:15:54.078Z,68.76
2019-03-12T07:17:02.391Z,68.67
2019-03-12T07:18:19.503Z,67.98
2019-03-12T07:19:30.780Z,68.24
2019-03-12T07:20:52.122Z,68.00
2019-03-12T07:22:09.471Z,68.12
2019-03-12T07:23:14.728Z,68.37
2019-03-12T07:24:23.008Z,68.10
2019-03-12T07:25:28.314Z,68.38
2019-03-12T07:26:33.575Z,68.58
2019-03-12T07:27:47.873Z,68.36
2019-03-12T07:28:58.819Z,68.23
2019-03-12T07:30:04.478Z,68.42
2019-03-12T07:31:21.800Z,67.95
2019-03-12T07:32:33.209Z,67.92
2019-03-12T07:33:38.472Z,67.74
2019-03-12T07:34:43.742Z,67.21
2019-03-12T07:35:49.009Z,66.51
2019-03-12T07:37:03.209Z,66.27
2019-03-12T07:38:24.754Z,66.20
2019-03-12T07:39:32.765Z,65.57
2019-03-12T07:40:40.992Z,65.47
2019-03-12T07:41:54.981Z,65.34
2019-03-12T07:43:00.304Z,66.00
2019-03-12T07:44:05.577Z,65.93
2019-03-12T07:45:14.095Z,65.74
2019-03-12T07:46:24.971Z,65.45
2019-03-12T07:47:35.659Z,65.03
2019-03-12T07:48:53.883Z,64.84
2019-03-12T07:50:14.486Z,65.08
2019-03-12T07:51:36.193Z,64.88
2019-03-12T07:52:50.258Z,64.27
2019-03-12T07:54:04.698Z,63.30
2019-03-12T07:55:12.948Z,64.01
2019-03-12T07:56:18.219Z,63.68
2019-03-12T07:57:35.343Z,63.74
2019-03-12T07:58:40.602Z,64.15
2019-03-12T07:59:45.904Z,63.44
2019-03-12T08:00:51.158Z,62.22
2019-03-12T08:01:59.425Z,62.84
2019-03-12T08:03:04.685Z,62.64
2019-03-12T08:04:18.813Z,62.60
2019-03-12T08:05:24.098Z,62.54
2019-03-12T08:06:29.364Z,62.47
2019-03-12T08:07:50.947Z,62.17
2019-03-12T08:09:12.515Z,62.16
2019-03-12T08:10:26.793Z,61.89
2019-03-12T08:11:32.087Z,61.76
2019-03-12T08:12:40.387Z,61.90
2019-03-12T08:14:01.857Z,61.54
2019-03-12T08:15:29.821Z,61.59
2019-03-12T08:16:41.039Z,61.39
2019-03-12T08:17:52.059Z,61.69
2019-03-12T08:19:03.168Z,61.82
2019-03-12T08:20:16.366Z,62.21
2019-03-12T08:21:30.877Z,61.72
2019-03-12T08:22:38.935Z,61.47
2019-03-12T08:23:50.169Z,61.20
2019-03-12T08:25:01.310Z,61.49
2019-03-12T08:26:06.720Z,61.09
2019-03-12T08:27:28.183Z,61.51
2019-03-12T08:28:51.947Z,61.56
2019-03-12T08:30:13.673Z,61.27
2019-03-12T08:31:18.948Z,61.33
2019-03-12T08:32:26.926Z,61.21
2019-03-12T08:33:35.174Z,61.30
2019-03-12T08:34:41.985Z,60.47
2019-03-12T08:35:50.161Z,60.58
2019-03-12T08:37:07.468Z,61.05
2019-03-12T08:38:15.234Z,61.27
2019-03-12T08:39:23.633Z,61.22
2019-03-12T08:40:52.477Z,61.16
2019-03-12T08:41:54.832Z,61.09
2019-03-12T08:43:15.624Z,60.16
2019-03-12T08:44:20.957Z,59.92
2019-03-12T08:45:45.386Z,60.05
2019-03-12T08:46:58.703Z,60.06
2019-03-12T08:48:07.034Z,60.24
2019-03-12T08:49:18.577Z,59.97
2019-03-12T08:50:36.228Z,59.87
2019-03-12T08:51:47.296Z,59.66
2019-03-12T08:53:09.018Z,59.47
2019-03-12T08:54:21.610Z,59.79
2019-03-12T08:55:27.053Z,59.06
2019-03-12T08:56:41.229Z,59.05
2019-03-12T08:57:49.178Z,59.05
2019-03-12T08:58:57.463Z,59.14
2019-03-12T09:00:11.535Z,59.38
2019-03-12T09:01:25.639Z,59.02
2019-03-12T09:02:49.543Z,58.94
2019-03-12T09:03:57.644Z,59.07
2019-03-12T09:05:02.943Z,58.74
2019-03-12T09:06:24.432Z,58.43
2019-03-12T09:07:35.290Z,58.45
2019-03-12T09:08:52.516Z,59.28
2019-03-12T09:10:07.006Z,58.91
2019-03-12T09:11:12.317Z,58.99
2019-03-12T09:12:33.727Z,58.75
2019-03-12T09:13:54.013Z,58.73
2019-03-12T09:15:08.287Z,59.05
2019-03-12T09:16:28.764Z,59.20
2019-03-12T09:17:34.033Z,59.50
2019-03-12T09:18:57.550Z,58.87
2019-03-12T09:20:08.348Z,58.52
2019-03-12T09:21:13.616Z,58.55
2019-03-12T09:22:19.036Z,58.75
2019-03-12T09:23:24.319Z,58.89
2019-03-12T09:24:35.697Z,59.34
2019-03-12T09:25:40.978Z,59.42
2019-03-12T09:27:01.356Z,59.35
2019-03-12T09:28:18.963Z,58.85
2019-03-12T09:29:24.232Z,58.81
2019-03-12T09:30:47.455Z,59.08
2019-03-12T09:31:52.721Z,58.48
2019-03-12T09:33:01.163Z,58.80
2019-03-12T09:34:06.464Z,58.28
2019-03-12T09:35:27.810Z,58.13
2019-03-12T09:36:45.398Z,58.22
2019-03-12T09:38:06.059Z,58.44
2019-03-12T09:39:17.630Z,58.73
2019-03-12T09:40:25.654Z,58.94
2019-03-12T09:41:36.946Z,58.63
2019-03-12T09:42:54.158Z,58.57
2019-03-12T09:44:01.998Z,58.62
2019-03-12T09:45:12.953Z,58.74
2019-03-12T09:46:30.345Z,58.57
2019-03-12T09:47:35.606Z,58.58
2019-03-12T09:48:43.912Z,57.93
2019-03-12T09:49:55.013Z,57.81
2019-03-12T09:51:06.354Z,58.36
2019-03-12T09:52:11.622Z,57.85
2019-03-12T09:53:28.777Z,57.50
2019-03-12T09:54:43.093Z,57.30
2019-03-12T09:55:50.915Z,57.62
2019-03-12T09:57:08.450Z,57.51
2019-03-12T09:58:26.012Z,57.66
2019-03-12T09:59:38.318Z,56.95
2019-03-12T10:00:43.587Z,56.91
2019-03-12T10:02:04.958Z,57.06
2019-03-12T10:03:10.249Z,57.06
2019-03-12T10:04:24.098Z,57.36
2019-03-12T10:05:38.749Z,56.95
2019-03-12T10:06:46.606Z,57.11
2019-03-12T10:07:51.869Z,56.77
2019-03-12T10:09:13.349Z,56.68
2019-03-12T10:10:18.622Z,56.55
2019-03-12T10:11:41.909Z,56.75
2019-03-12T10:13:03.531Z,56.67
2019-03-12T10:14:08.810Z,56.50
2019-03-12T10:15:16.891Z,56.16
2019-03-12T10:16:24.959Z,56.53
2019-03-12T10:17:30.516Z,56.09
2019-03-12T10:18:52.219Z,56.28
2019-03-12T10:20:00.423Z,55.83
2019-03-12T10:21:21.894Z,56.17
2019-03-12T10:22:33.250Z,56.32
2019-03-12T10:23:50.539Z,56.15
2019-03-12T10:25:01.588Z,55.81
2019-03-12T10:26:06.861Z,55.68
2019-03-12T10:27:17.898Z,55.88
2019-03-12T10:28:25.966Z,55.68
2019-03-12T10:29:36.821Z,55.99
2019-03-12T10:31:00.408Z,56.05
2019-03-12T10:32:17.571Z,55.71
2019-03-12T10:33:32.028Z,55.91
2019-03-12T10:34:52.548Z,55.86
2019-03-12T10:35:57.885Z,56.03
2019-03-12T10:37:11.999Z,55.91
2019-03-12T10:38:52.724Z,56.62
2019-03-12T10:40:05.408Z,56.71
2019-03-12T10:41:10.615Z,57.13
2019-03-12T10:42:21.833Z,57.36
2019-03-12T10:43:27.092Z,57.56
2019-03-12T10:44:32.756Z,57.79
2019-03-12T10:45:43.898Z,57.62
2019-03-12T10:46:49.174Z,57.62
2019-03-12T10:48:00.394Z,57.86
2019-03-12T10:49:04.026Z,57.77
2019-03-12T10:50:09.376Z,58.11
2019-03-12T10:51:13.300Z,57.99
2019-03-12T10:52:16.995Z,57.59
2019-03-12T10:53:20.682Z,57.80
2019-03-12T10:54:24.373Z,57.51
2019-03-12T10:55:28.035Z,57.66
2019-03-12T10:56:31.651Z,58.13
2019-03-12T10:57:35.432Z,57.65
2019-03-12T10:58:39.127Z,57.38
2019-03-12T10:59:42.781Z,57.28
2019-03-12T11:00:46.720Z,57.91
2019-03-12T11:01:50.269Z,58.02
2019-03-12T11:02:53.903Z,57.72
2019-03-12T11:03:57.526Z,57.90
2019-03-12T11:05:01.228Z,58.05
2019-03-12T11:06:05.321Z,58.01
2019-03-12T11:07:16.516Z,57.94
2019-03-12T11:08:14.403Z,58.04
2019-03-12T11:09:18.041Z,58.43
2019-03-12T11:10:21.807Z,58.52
2019-03-12T11:11:25.447Z,58.59
2019-03-12T11:12:29.142Z,58.78
2019-03-12T11:13:32.810Z,59.39
2019-03-12T11:14:36.439Z,58.97
2019-03-12T11:15:40.135Z,59.14
2019-03-12T11:16:43.855Z,59.24
2019-03-12T11:17:50.008Z,59.54
2019-03-12T11:18:52.927Z,59.75
2019-03-12T11:19:56.694Z,59.79
2019-03-12T11:21:00.329Z,59.97
2019-03-12T11:22:03.978Z,60.32
2019-03-12T11:23:07.689Z,60.64
2019-03-12T11:24:11.381Z,60.90
2019-03-12T11:25:26.373Z,60.63
2019-03-12T11:26:20.434Z,61.05
2019-03-12T11:27:24.086Z,61.32
2019-03-12T11:28:27.712Z,61.69
2019-03-12T11:29:31.340Z,61.77
2019-03-12T11:30:35.387Z,61.90
2019-03-12T11:31:39.018Z,61.75
2019-03-12T11:32:42.681Z,62.56
2019-03-12T11:33:46.315Z,62.98
2019-03-12T11:34:49.946Z,63.34
2019-03-12T11:35:53.775Z,63.72
2019-03-12T11:36:57.460Z,64.28
2019-03-12T11:38:01.197Z,64.04
2019-03-12T11:39:06.140Z,64.50
2019-03-12T11:40:18.119Z,64.33
2019-03-12T11:41:22.148Z,63.43
2019-03-12T11:42:25.784Z,63.25
2019-03-12T11:43:29.465Z,63.71
2019-03-12T11:44:33.180Z,63.13
2019-03-12T11:45:37.940Z,64.06
2019-03-12T11:46:45.168Z,64.81
2019-03-12T11:47:47.446Z,63.80
2019-03-12T11:48:51.280Z,63.61
2019-03-12T11:49:54.953Z,64.00
2019-03-12T11:50:58.584Z,63.88
2019-03-12T11:52:02.258Z,64.43
2019-03-12T11:53:06.530Z,63.65
2019-03-12T11:54:10.352Z,64.28
2019-03-12T11:55:15.421Z,63.77
2019-03-12T11:56:19.058Z,63.29
2019-03-12T11:57:22.681Z,63.87
2019-03-12T11:58:26.313Z,64.57
2019-03-12T11:59:29.934Z,65.03
2019-03-12T12:00:38.319Z,65.02
2019-03-12T12:01:41.944Z,64.96
2019-03-12T12:02:45.567Z,64.92
2019-03-12T12:03:49.199Z,64.12
2019-03-12T12:04:52.827Z,64.73
2019-03-12T12:05:56.487Z,64.31
2019-03-12T12:07:00.124Z,64.93
2019-03-12T12:08:03.761Z,64.45
2019-03-12T12:09:08.361Z,64.07
2019-03-12T12:10:17.695Z,64.57
2019-03-12T12:11:21.346Z,64.25
2019-03-12T12:12:24.981Z,63.80
2019-03-12T12:13:28.675Z,64.30
2019-03-12T12:14:32.302Z,64.94
2019-03-12T12:15:36.126Z,65.29
2019-03-12T12:16:39.783Z,64.40
2019-03-12T12:17:43.482Z,63.64
2019-03-12T12:18:47.120Z,63.45
2019-03-12T12:19:50.751Z,63.38
2019-03-12T12:20:56.093Z,63.20
2019-03-12T12:21:59.764Z,62.90
2019-03-12T12:23:03.396Z,62.94
2019-03-12T12:24:07.157Z,62.05
2019-03-12T12:25:15.960Z,61.87
2019-03-12T12:26:19.654Z,62.27
2019-03-12T12:27:23.319Z,61.50
2019-03-12T12:28:26.946Z,61.58
2019-03-12T12:30:54.840Z,61.91
2019-03-12T12:31:58.576Z,61.80
2019-03-12T12:33:02.232Z,61.35
2019-03-12T12:34:05.861Z,60.66
2019-03-12T12:35:10.686Z,61.25
2019-03-12T12:36:14.629Z,61.27
2019-03-12T12:37:18.257Z,61.50
2019-03-12T12:38:21.915Z,61.85
2019-03-12T12:39:25.560Z,62.44
2019-03-12T12:40:29.169Z,61.45
2019-03-12T12:41:32.808Z,61.92
2019-03-12T12:42:36.518Z,62.66
2019-03-12T12:43:40.171Z,62.27
2019-03-12T12:44:43.875Z,62.41
2019-03-12T12:45:47.589Z,62.81
2019-03-12T12:46:51.219Z,63.71
2019-03-12T12:47:54.857Z,63.19
2019-03-12T12:48:58.578Z,63.50
2019-03-12T12:50:02.278Z,63.49
2019-03-12T12:51:06.115Z,63.09
2019-03-12T12:52:09.807Z,63.50
2019-03-12T12:53:13.435Z,63.26
2019-03-12T12:54:19.805Z,64.03
2019-03-12T12:55:23.775Z,64.03
2019-03-12T12:56:27.562Z,63.98
2019-03-12T12:57:31.192Z,64.18
2019-03-12T12:58:34.813Z,63.73
2019-03-12T12:59:38.485Z,63.59
2019-03-12T13:00:43.291Z,63.46
2019-03-12T13:01:46.992Z,63.87
2019-03-12T13:02:50.633Z,63.60
2019-03-12T13:03:54.689Z,62.83
2019-03-12T13:04:58.360Z,63.14
2019-03-12T13:06:01.999Z,62.23
2019-03-12T13:07:05.627Z,63.16
2019-03-12T13:08:09.330Z,62.78
2019-03-12T13:09:13.364Z,62.65
2019-03-12T13:10:24.937Z,61.95
2019-03-12T13:11:28.627Z,61.82
2019-03-12T13:12:32.250Z,61.55
2019-03-12T13:13:35.877Z,62.16
2019-03-12T13:14:41.792Z,62.00
2019-03-12T13:15:45.036Z,62.57
2019-03-12T13:16:48.668Z,62.15
2019-03-12T13:17:52.563Z,62.25
2019-03-12T13:18:56.221Z,62.17
2019-03-12T13:19:59.862Z,61.84
2019-03-12T13:21:03.515Z,61.66
2019-03-12T13:22:07.244Z,61.08
2019-03-12T13:23:10.866Z,60.89
2019-03-12T13:24:14.503Z,61.11
2019-03-12T13:25:19.311Z,60.69
2019-03-12T13:26:22.947Z,60.53
2019-03-12T13:27:26.567Z,60.96
2019-03-12T13:28:30.296Z,60.94
2019-03-12T13:29:34.005Z,61.59
2019-03-12T13:30:37.638Z,61.51
2019-03-12T13:31:41.306Z,61.57
2019-03-12T13:32:44.999Z,61.75
2019-03-12T13:33:49.057Z,62.06
2019-03-12T13:34:52.685Z,62.15
2019-03-12T13:35:56.385Z,62.47
2019-03-12T13:37:00.110Z,62.15
2019-03-12T13:38:03.736Z,62.25
2019-03-12T13:39:07.896Z,62.71
2019-03-12T13:40:22.894Z,62.96
2019-03-12T13:41:26.779Z,63.02
2019-03-12T13:42:30.555Z,63.05
2019-03-12T13:43:34.659Z,63.18
2019-03-12T13:44:38.209Z,62.44
2019-03-12T13:45:44.157Z,62.61
2019-03-12T13:46:47.778Z,62.92
2019-03-12T13:47:51.564Z,63.35
2019-03-12T13:48:55.170Z,63.34
2019-03-12T13:49:58.831Z,62.75
2019-03-12T13:51:02.624Z,62.74
2019-03-12T13:52:06.270Z,62.75
2019-03-12T13:53:09.927Z,62.87
2019-03-12T13:54:13.545Z,62.55
2019-03-12T13:55:17.295Z,62.55
2019-03-12T13:56:20.980Z,62.63
2019-03-12T13:57:24.663Z,62.85
2019-03-12T13:58:28.329Z,62.55
2019-03-12T13:59:31.958Z,62.94
2019-03-12T14:00:35.591Z,63.16
2019-03-12T14:01:39.234Z,62.53
2019-03-12T14:02:42.859Z,62.92
2019-03-12T14:03:46.511Z,62.79
2019-03-12T14:04:50.147Z,62.77
2019-03-12T14:05:53.777Z,62.95
2019-03-12T14:06:57.414Z,62.90
2019-03-12T14:08:01.053Z,62.87
2019-03-12T14:09:06.006Z,63.02
2019-03-12T14:10:26.413Z,62.86
2019-03-12T14:11:30.135Z,62.64
2019-03-12T14:12:33.922Z,62.10
2019-03-12T14:13:37.663Z,62.06
2019-03-12T14:14:41.731Z,62.09
2019-03-12T14:15:45.358Z,61.92